• Join FlightAware (Why Join?)
  • Login
  • US Flag 
10:59PM EDT


 

Airport Tracker/Info


-or-


 

Live Flight TrackerFlight Track Log ✈ AFL1861 ✈ 09-Jun-2014 ✈ UDYZ / EVN - UUEE / SVO

Flight Track Log - Related Links

Times and Time Zones

All times are in EDT time to prevent confusion due to time zone crossing. See the AFL1861 flight status page for this flight to view local times or setup timezone preferences in your user account.

Time Position Orientation Groundspeed Altitude Reporting Facility
EDT Latitude Longitude Course Direction KTS MPH feet Rate Location/Type
07:49AM 43.2815 44.0393 344° North  Level Estimated
07:50AM 43.3804 43.9997 344° North  Level Estimated
07:51AM 43.4793 43.9601 344° North  Level Estimated
07:52AM 43.5782 43.9203 344° North  Level Estimated
07:53AM 43.6771 43.8804 344° North  Level Estimated
07:54AM 43.7759 43.8403 344° North  Level Estimated
07:55AM 43.8748 43.8001 344° North  Level Estimated
07:56AM 43.9736 43.7598 344° North  Level Estimated
07:57AM 44.0724 43.7193 344° North  Level Estimated
07:58AM 44.1712 43.6788 344° North  Level Estimated
07:59AM 44.2700 43.6380 344° North  Level Estimated
08:00AM 44.3688 43.5972 344° North  Level Estimated
08:01AM 44.4675 43.5562 343° North  Level Estimated
08:02AM 44.5663 43.5150 343° North  Level Estimated
08:03AM 44.6650 43.4737 343° North  Level Estimated
08:04AM 44.7637 43.4323 343° North  Level Estimated
08:05AM 44.8624 43.3908 343° North  Level Estimated
08:06AM 44.9611 43.3490 343° North  Level Estimated
08:07AM 45.0598 43.3072 343° North  Level Estimated
08:08AM 45.1585 43.2652 343° North  Level Estimated
08:09AM 45.2571 43.2231 343° North  Level Estimated
08:10AM 45.3557 43.1808 343° North  Level Estimated
08:11AM 45.4543 43.1383 343° North  Level Estimated
08:12AM 45.5529 43.0958 343° North  Level Estimated
08:13AM 45.6515 43.0530 343° North  Level Estimated
08:14AM 45.7500 43.0101 343° North  Level Estimated
08:15AM 45.8486 42.9671 343° North  Level Estimated
08:16AM 45.9471 42.9239 343° North  Level Estimated
08:17AM 46.0456 42.8806 343° North  Level Estimated
08:18AM 46.1441 42.8371 343° North  Level Estimated
08:19AM 46.2426 42.7934 343° North  Level Estimated
08:20AM 46.3411 42.7496 343° North  Level Estimated
08:21AM 46.4395 42.7056 343° North  Level Estimated
08:22AM 46.5379 42.6615 343° North  Level Estimated
08:23AM 46.6364 42.6172 343° North  Level Estimated
08:24AM 46.7347 42.5728 343° North  Level Estimated
08:25AM 46.8331 42.5282 343° North  Level Estimated
08:26AM 46.9315 42.4834 343° North  Level Estimated
08:27AM 47.0298 42.4384 343° North  Level Estimated
08:28AM 47.1282 42.3933 343° North  Level Estimated
08:29AM 47.2265 42.3481 343° North  Level Estimated
08:30AM 47.3247 42.3026 343° North  Level Estimated
08:31AM 47.4230 42.2570 343° North  Level Estimated
08:32AM 47.5213 42.2112 343° North  Level Estimated
08:33AM 47.6195 42.1653 343° North  Level Estimated
08:34AM 47.7177 42.1192 342° North  Level Estimated
08:35AM 47.8159 42.0729 342° North  Level Estimated
08:36AM 47.9141 42.0264 342° North  Level Estimated
08:37AM 48.0123 41.9797 342° North  Level Estimated
08:38AM 48.1104 41.9329 342° North  Level Estimated
08:39AM 48.2085 41.8859 342° North  Level Estimated
08:40AM 48.3066 41.8387 342° North  Level Estimated
08:41AM 48.4047 41.7913 342° North  Level Estimated
08:42AM 48.5028 41.7438 342° North  Level Estimated
08:43AM 48.6008 41.6960 342° North  Level Estimated
08:44AM 48.6988 41.6481 342° North  Level Estimated
08:45AM 48.7968 41.6000 342° North  Level Estimated
08:46AM 48.8948 41.5517 342° North  Level Estimated
08:47AM 48.9928 41.5032 342° North  Level Estimated
08:48AM 49.0907 41.4545 342° North  Level Estimated
08:49AM 49.1887 41.4057 342° North  Level Estimated
08:50AM 49.2866 41.3566 342° North  Level Estimated
08:51AM 49.3844 41.3073 342° North  Level Estimated
08:52AM 49.4823 41.2579 342° North  Level Estimated
08:53AM 49.5802 41.2082 342° North  Level Estimated
08:54AM 49.6780 41.1584 342° North  Level Estimated
08:55AM 49.7758 41.1083 342° North  Level Estimated
08:56AM 49.8735 41.0580 342° North  Level Estimated
08:57AM 49.9713 41.0076 342° North  Level Estimated
08:58AM 50.0690 40.9569 342° North  Level Estimated
08:59AM 50.1667 40.9060 342° North  Level Estimated
09:00AM 50.2644 40.8550 342° North  Level Estimated
09:01AM 50.3621 40.8037 341° North  Level Estimated
09:02AM 50.4597 40.7522 341° North  Level Estimated
09:03AM 50.5574 40.7004 341° North  Level Estimated
09:04AM 50.6549 40.6485 341° North  Level Estimated
09:05AM 50.7525 40.5964 341° North  Level Estimated
09:06AM 50.8501 40.5440 341° North  Level Estimated
09:07AM 50.9476 40.4914 341° North  Level Estimated
09:08AM 51.0451 40.4386 341° North  Level Estimated
09:09AM 51.1426 40.3856 341° North  Level Estimated
09:10AM 51.2400 40.3323 341° North  Level Estimated
09:11AM 51.3374 40.2788 341° North  Level Estimated
09:12AM 51.4349 40.2251 341° North  Level Estimated
09:13AM 51.5322 40.1712 341° North  Level Estimated
09:14AM 51.6296 40.1170 341° North  Level Estimated
09:15AM 51.7269 40.0626 341° North  Level Estimated
09:16AM 51.8242 40.0080 341° North  Level Estimated
09:17AM 51.9215 39.9531 341° North  Level Estimated
09:18AM 52.0188 39.8980 341° North  Level Estimated
09:19AM 52.1160 39.8426 341° North  Level Estimated
09:20AM 52.2132 39.7870 341° North  Level Estimated
09:21AM 52.3104 39.7312 341° North  Level Estimated
09:22AM 52.4075 39.6751 341° North  Level Estimated
09:23AM 52.5047 39.6188 341° North  Level Estimated
09:24AM 52.6017 39.5622 341° North  Level Estimated
09:25AM 52.6988 39.5054 340° North  Level Estimated
09:26AM 52.7959 39.4483 340° North  Level Estimated
09:27AM 52.8929 39.3909 340° North  Level Estimated
09:28AM 52.9899 39.3333 340° North  Level Estimated
09:29AM 53.0868 39.2755 340° North  Level Estimated
09:30AM 53.1838 39.2174 340° North  Level Estimated
09:31AM 53.2807 39.1590 340° North  Level Estimated
09:32AM 53.3775 39.1003 340° North  Level Estimated
09:33AM 53.4744 39.0414 340° North  Level Estimated
09:34AM 53.5712 38.9822 340° North  Level Estimated
09:35AM 53.6680 38.9228 340° North  Level Estimated
09:36AM 53.7647 38.8631 340° North  Level Estimated
09:36AM 55.1734 37.3619 North 400 460 27,600  Level FlightAware ADS-B
09:36AM 55.2267 37.3654 North 387 445 26,700 -1,560 Descending FlightAware ADS-B
09:37AM 55.2623 37.3656 359° North 375 432 26,300 -2,040 Descending FlightAware ADS-B
09:37AM 55.3149 37.3633 358° North 374 430 25,000 -2,520 Descending FlightAware ADS-B
09:38AM 55.3683 37.3609 359° North 370 426 23,800 -1,800 Descending FlightAware ADS-B
09:38AM 55.4175 37.3592 359° North 359 413 23,200 -840 Descending FlightAware ADS-B
09:39AM 55.4653 37.3581 360° North 342 394 23,000 -240 Descending FlightAware ADS-B
09:39AM 55.5117 37.3573 360° North 329 379 23,000  Level FlightAware ADS-B
09:40AM 55.5704 37.3563 360° North 332 382 23,000  Level FlightAware ADS-B
09:40AM 55.6240 37.3552 359° North 343 395 23,000 -120 Level FlightAware ADS-B
09:41AM 55.6827 37.3534 359° North 340 391 22,900 -1,020 Descending FlightAware ADS-B
09:41AM 55.7293 37.3527 North 343 395 21,900 -1,920 Descending FlightAware ADS-B
09:42AM 55.7772 37.3613 North 335 386 21,000 -1,800 Descending FlightAware ADS-B
09:42AM 55.8214 37.3717 North 333 383 20,100 -1,740 Descending FlightAware ADS-B
09:43AM 55.8682 37.3837 North 320 368 19,300 -2,040 Descending FlightAware ADS-B
09:43AM 55.9088 37.3950 North 318 366 18,100 -2,280 Descending FlightAware ADS-B
09:44AM 55.9715 37.4126 North 312 359 16,600 -2,160 Descending FlightAware ADS-B
09:47AM 55.9726 37.4146 45° Northeast  Level Estimated
09:48AM 55.9726 37.4146 North  Level Estimated
09:49AM 55.9726 37.4146 North  Level Estimated
09:50AM 55.9726 37.4146 North  Level Estimated
09:51AM 55.9726 37.4146 North  Level Estimated
09:52AM 55.9726 37.4146 North  Level Estimated
09:53AM 55.9726 37.4146 North  Level Estimated
09:54AM 55.9726 37.4146 North  Level Estimated
09:55AM 55.9726 37.4146 North  Level Estimated
09:56AM 55.9726 37.4146 North  Level Estimated
09:57AM 55.9726 37.4146 North  Level Estimated
09:58AM 55.9726 37.4146 North  Level Estimated
09:59AM 55.9726 37.4146 North  Level Estimated
10:00AM 55.9726 37.4146 North  Level Estimated